sensor_id;sensor_type;location;lat;lon;timestamp;temperature;humidity
1524;DHT22;755;53.658;10.118;2022-11-15T00:00:22;5.50;99.90
1524;DHT22;755;53.658;10.118;2022-11-15T00:10:24;5.40;99.90
1524;DHT22;755;53.658;10.118;2022-11-15T00:20:27;5.30;99.90
1524;DHT22;755;53.658;10.118;2022-11-15T00:30:30;5.20;99.90
1524;DHT22;755;53.658;10.118;2022-11-15T00:40:34;5.30;99.90
1524;DHT22;755;53.658;10.118;2022-11-15T00:50:36;5.20;99.90
1524;DHT22;755;53.658;10.118;2022-11-15T01:00:39;5.10;99.90
1524;DHT22;755;53.658;10.118;2022-11-15T01:10:42;5.10;99.90
1524;DHT22;755;53.658;10.118;2022-11-15T01:20:45;5.00;99.90
1524;DHT22;755;53.658;10.118;2022-11-15T01:30:47;4.90;99.90
1524;DHT22;755;53.658;10.118;2022-11-15T01:40:51;5.00;99.90
1524;DHT22;755;53.658;10.118;2022-11-15T01:50:53;4.90;99.90
1524;DHT22;755;53.658;10.118;2022-11-15T02:00:57;4.80;99.90
1524;DHT22;755;53.658;10.118;2022-11-15T02:10:59;4.80;99.90
1524;DHT22;755;53.658;10.118;2022-11-15T02:21:17;4.70;99.90
1524;DHT22;755;53.658;10.118;2022-11-15T02:31:29;4.60;99.90
1524;DHT22;755;53.658;10.118;2022-11-15T02:41:38;4.60;99.90
1524;DHT22;755;53.658;10.118;2022-11-15T02:51:46;4.50;99.90
1524;DHT22;755;53.658;10.118;2022-11-15T03:02:00;4.40;99.90
1524;DHT22;755;53.658;10.118;2022-11-15T03:12:11;4.30;99.90
1524;DHT22;755;53.658;10.118;2022-11-15T03:22:17;4.30;99.90
1524;DHT22;755;53.658;10.118;2022-11-15T03:32:26;4.20;99.90
1524;DHT22;755;53.658;10.118;2022-11-15T03:42:32;4.10;99.90
1524;DHT22;755;53.658;10.118;2022-11-15T03:52:37;4.20;99.90
1524;DHT22;755;53.658;10.118;2022-11-15T04:02:41;4.10;99.90
1524;DHT22;755;53.658;10.118;2022-11-15T04:12:46;4.10;99.90
1524;DHT22;755;53.658;10.118;2022-11-15T04:22:49;4.10;99.90
1524;DHT22;755;53.658;10.118;2022-11-15T04:33:12;4.10;99.90
1524;DHT22;755;53.658;10.118;2022-11-15T04:43:16;4.10;99.90
1524;DHT22;755;53.658;10.118;2022-11-15T04:53:20;4.20;99.90
1524;DHT22;755;53.658;10.118;2022-11-15T05:03:22;4.20;99.90
1524;DHT22;755;53.658;10.118;2022-11-15T05:13:43;4.20;99.90
1524;DHT22;755;53.658;10.118;2022-11-15T05:23:46;4.30;99.90
1524;DHT22;755;53.658;10.118;2022-11-15T05:33:50;4.40;99.90
1524;DHT22;755;53.658;10.118;2022-11-15T05:43:53;4.60;99.90
1524;DHT22;755;53.658;10.118;2022-11-15T05:54:08;4.70;99.90
1524;DHT22;755;53.658;10.118;2022-11-15T06:04:13;4.90;99.90
1524;DHT22;755;53.658;10.118;2022-11-15T06:14:17;5.10;99.90
1524;DHT22;755;53.658;10.118;2022-11-15T06:24:19;5.30;99.90
1524;DHT22;755;53.658;10.118;2022-11-15T06:34:24;5.40;99.90
1524;DHT22;755;53.658;10.118;2022-11-15T06:44:26;5.50;99.90
1524;DHT22;755;53.658;10.118;2022-11-15T06:54:29;5.70;99.90
1524;DHT22;755;53.658;10.118;2022-11-15T07:04:31;5.80;99.90
1524;DHT22;755;53.658;10.118;2022-11-15T07:14:35;5.90;99.90
1524;DHT22;755;53.658;10.118;2022-11-15T07:24:37;6.40;99.90
1524;DHT22;755;53.658;10.118;2022-11-15T07:34:41;6.70;99.90
1524;DHT22;755;53.658;10.118;2022-11-15T07:44:43;6.80;99.90
1524;DHT22;755;53.658;10.118;2022-11-15T07:54:46;7.10;99.90
1524;DHT22;755;53.658;10.118;2022-11-15T08:04:48;7.20;99.90
1524;DHT22;755;53.658;10.118;2022-11-15T08:14:51;7.20;99.90
1524;DHT22;755;53.658;10.118;2022-11-15T08:24:53;7.30;99.90
1524;DHT22;755;53.658;10.118;2022-11-15T08:34:56;7.30;99.90
1524;DHT22;755;53.658;10.118;2022-11-15T08:44:58;7.30;99.90
1524;DHT22;755;53.658;10.118;2022-11-15T08:55:02;7.30;99.90
1524;DHT22;755;53.658;10.118;2022-11-15T09:05:05;7.50;99.90
1524;DHT22;755;53.658;10.118;2022-11-15T09:15:09;7.50;99.90
1524;DHT22;755;53.658;10.118;2022-11-15T09:25:12;7.60;99.90
1524;DHT22;755;53.658;10.118;2022-11-15T09:35:15;7.70;99.90
1524;DHT22;755;53.658;10.118;2022-11-15T09:45:22;7.90;99.90
1524;DHT22;755;53.658;10.118;2022-11-15T09:55:36;8.00;99.90
1524;DHT22;755;53.658;10.118;2022-11-15T10:05:42;8.30;99.90
1524;DHT22;755;53.658;10.118;2022-11-15T10:15:46;8.50;99.90
1524;DHT22;755;53.658;10.118;2022-11-15T10:25:52;8.60;99.90
1524;DHT22;755;53.658;10.118;2022-11-15T10:36:15;8.70;99.90
1524;DHT22;755;53.658;10.118;2022-11-15T10:46:19;9.00;99.90
1524;DHT22;755;53.658;10.118;2022-11-15T10:56:26;9.10;99.90
1524;DHT22;755;53.658;10.118;2022-11-15T11:06:29;9.20;99.90
1524;DHT22;755;53.658;10.118;2022-11-15T11:16:42;9.40;99.90
1524;DHT22;755;53.658;10.118;2022-11-15T11:26:53;9.40;99.90
1524;DHT22;755;53.658;10.118;2022-11-15T11:37:04;9.50;99.90
1524;DHT22;755;53.658;10.118;2022-11-15T11:47:15;9.60;99.90
1524;DHT22;755;53.658;10.118;2022-11-15T11:57:33;9.80;99.90
1524;DHT22;755;53.658;10.118;2022-11-15T12:07:37;9.90;99.90
1524;DHT22;755;53.658;10.118;2022-11-15T12:17:41;10.00;99.90
1524;DHT22;755;53.658;10.118;2022-11-15T12:27:47;10.10;99.90
1524;DHT22;755;53.658;10.118;2022-11-15T12:37:53;10.00;99.90
1524;DHT22;755;53.658;10.118;2022-11-15T12:48:45;10.20;99.90
1524;DHT22;755;53.658;10.118;2022-11-15T12:58:55;10.30;99.90
1524;DHT22;755;53.658;10.118;2022-11-15T13:08:57;10.50;99.90
1524;DHT22;755;53.658;10.118;2022-11-15T13:19:02;10.50;99.90
1524;DHT22;755;53.658;10.118;2022-11-15T13:29:14;10.60;99.90
1524;DHT22;755;53.658;10.118;2022-11-15T13:39:27;10.50;99.90
1524;DHT22;755;53.658;10.118;2022-11-15T13:49:30;10.50;99.90
1524;DHT22;755;53.658;10.118;2022-11-15T13:59:36;10.50;99.90
1524;DHT22;755;53.658;10.118;2022-11-15T14:09:39;10.50;99.90
1524;DHT22;755;53.658;10.118;2022-11-15T14:19:43;10.50;99.90
1524;DHT22;755;53.658;10.118;2022-11-15T14:29:45;10.50;99.90
1524;DHT22;755;53.658;10.118;2022-11-15T14:39:48;10.50;99.90
1524;DHT22;755;53.658;10.118;2022-11-15T14:49:50;10.40;99.90
1524;DHT22;755;53.658;10.118;2022-11-15T14:59:54;10.30;99.90
1524;DHT22;755;53.658;10.118;2022-11-15T15:09:56;10.10;99.90
1524;DHT22;755;53.658;10.118;2022-11-15T15:19:59;10.00;99.90
1524;DHT22;755;53.658;10.118;2022-11-15T15:30:01;9.80;99.90
1524;DHT22;755;53.658;10.118;2022-11-15T15:40:11;9.60;99.90
1524;DHT22;755;53.658;10.118;2022-11-15T15:50:21;9.50;99.90
1524;DHT22;755;53.658;10.118;2022-11-15T16:00:25;9.40;99.90
1524;DHT22;755;53.658;10.118;2022-11-15T16:10:29;9.20;99.90
1524;DHT22;755;53.658;10.118;2022-11-15T16:20:35;9.20;99.90
1524;DHT22;755;53.658;10.118;2022-11-15T16:30:37;9.10;99.90
1524;DHT22;755;53.658;10.118;2022-11-15T16:40:41;9.10;99.90
1524;DHT22;755;53.658;10.118;2022-11-15T16:50:43;9.10;99.90
1524;DHT22;755;53.658;10.118;2022-11-15T17:00:50;9.10;99.90
1524;DHT22;755;53.658;10.118;2022-11-15T17:10:52;9.20;99.90
1524;DHT22;755;53.658;10.118;2022-11-15T17:20:55;9.20;99.90
1524;DHT22;755;53.658;10.118;2022-11-15T17:30:57;9.10;99.90
1524;DHT22;755;53.658;10.118;2022-11-15T17:41:03;9.20;99.90
1524;DHT22;755;53.658;10.118;2022-11-15T17:51:10;9.10;99.90
1524;DHT22;755;53.658;10.118;2022-11-15T18:01:16;9.10;99.90
1524;DHT22;755;53.658;10.118;2022-11-15T18:11:20;9.00;99.90
1524;DHT22;755;53.658;10.118;2022-11-15T18:21:26;8.90;99.90
1524;DHT22;755;53.658;10.118;2022-11-15T18:31:29;9.00;99.90
1524;DHT22;755;53.658;10.118;2022-11-15T18:41:34;9.40;99.90
1524;DHT22;755;53.658;10.118;2022-11-15T18:51:36;9.50;99.90
1524;DHT22;755;53.658;10.118;2022-11-15T19:01:43;9.70;99.90
1524;DHT22;755;53.658;10.118;2022-11-15T19:11:47;9.80;99.90
1524;DHT22;755;53.658;10.118;2022-11-15T19:21:52;9.80;99.90
1524;DHT22;755;53.658;10.118;2022-11-15T19:31:54;9.90;99.90
1524;DHT22;755;53.658;10.118;2022-11-15T19:41:57;9.90;99.90
1524;DHT22;755;53.658;10.118;2022-11-15T19:51:59;9.90;99.90
1524;DHT22;755;53.658;10.118;2022-11-15T20:02:03;10.00;99.90
1524;DHT22;755;53.658;10.118;2022-11-15T20:12:05;10.00;99.90
1524;DHT22;755;53.658;10.118;2022-11-15T20:22:09;10.00;99.90
1524;DHT22;755;53.658;10.118;2022-11-15T20:32:12;10.00;99.90
1524;DHT22;755;53.658;10.118;2022-11-15T20:42:15;10.00;99.90
1524;DHT22;755;53.658;10.118;2022-11-15T20:52:19;10.00;99.90
1524;DHT22;755;53.658;10.118;2022-11-15T21:02:22;10.00;99.90
1524;DHT22;755;53.658;10.118;2022-11-15T21:12:24;10.00;99.90
1524;DHT22;755;53.658;10.118;2022-11-15T21:22:28;10.00;99.90
1524;DHT22;755;53.658;10.118;2022-11-15T21:32:30;9.90;99.90
1524;DHT22;755;53.658;10.118;2022-11-15T21:42:44;9.90;99.90
1524;DHT22;755;53.658;10.118;2022-11-15T21:52:53;9.80;99.90
1524;DHT22;755;53.658;10.118;2022-11-15T22:02:56;9.70;99.90
1524;DHT22;755;53.658;10.118;2022-11-15T22:12:58;9.70;99.90
1524;DHT22;755;53.658;10.118;2022-11-15T22:23:02;9.70;99.90
1524;DHT22;755;53.658;10.118;2022-11-15T22:33:05;9.50;99.90
1524;DHT22;755;53.658;10.118;2022-11-15T22:43:09;9.40;99.90
1524;DHT22;755;53.658;10.118;2022-11-15T22:53:13;9.20;99.90
1524;DHT22;755;53.658;10.118;2022-11-15T23:03:42;9.10;99.90
1524;DHT22;755;53.658;10.118;2022-11-15T23:13:58;9.10;99.90
1524;DHT22;755;53.658;10.118;2022-11-15T23:24:03;8.90;99.90
1524;DHT22;755;53.658;10.118;2022-11-15T23:34:06;8.80;99.90
1524;DHT22;755;53.658;10.118;2022-11-15T23:44:10;8.70;99.90
1524;DHT22;755;53.658;10.118;2022-11-15T23:54:13;8.60;99.90
